Monkton, Vermont
Current Conditions -  °F | °C
As of 9:54 PM on Tuesday 21 Oct 2014 (Local Time) from KBTV Reporting Station
Light Rain Light Rain  
Wind Chill: 46°   Ceiling: 400
Heat Index: 49°   Visibility: 6mi
Dew Point: 46°   Wind: 7mph
Humidity: 90%   Direction: 340°NNW
Pressure: 30.08"   Gusts: NA
Location:  44.24°N, 73.15°W
Report Text: KBTV 220154Z 34006KT 6SM -RA BR OVC004 09/08 A3008 RMK AO2 RAB07 SLP188 P0000 T00940078 $
Loading
Personal Weather Stations






























Interactive Weather Map
Tropical Storm Tracking
New forecast layout! Learn more

10-Day Weather Forecast

Advertisements
Track Severe Weather on mobile